sensor_id;sensor_type;location;lat;lon;timestamp;P1;durP1;ratioP1;P2;durP2;ratioP2
77332;SDS011;66408;51.326;12.070;2023-04-24T00:01:01;1.65;;;0.65;;
77332;SDS011;66408;51.326;12.070;2023-04-24T00:03:28;0.82;;;0.50;;
77332;SDS011;66408;51.326;12.070;2023-04-24T00:05:55;0.88;;;0.50;;
77332;SDS011;66408;51.326;12.070;2023-04-24T00:08:22;1.08;;;0.60;;
77332;SDS011;66408;51.326;12.070;2023-04-24T00:10:49;1.00;;;0.40;;
77332;SDS011;66408;51.326;12.070;2023-04-24T00:13:16;0.50;;;0.40;;
77332;SDS011;66408;51.326;12.070;2023-04-24T00:15:42;1.15;;;0.60;;
77332;SDS011;66408;51.326;12.070;2023-04-24T00:18:09;1.13;;;0.50;;
77332;SDS011;66408;51.326;12.070;2023-04-24T00:20:35;1.52;;;0.50;;
77332;SDS011;66408;51.326;12.070;2023-04-24T00:23:02;1.27;;;0.55;;
77332;SDS011;66408;51.326;12.070;2023-04-24T00:25:29;1.77;;;0.70;;
77332;SDS011;66408;51.326;12.070;2023-04-24T00:27:55;0.90;;;0.47;;
77332;SDS011;66408;51.326;12.070;2023-04-24T00:30:22;2.15;;;0.60;;
77332;SDS011;66408;51.326;12.070;2023-04-24T00:32:48;1.52;;;0.50;;
77332;SDS011;66408;51.326;12.070;2023-04-24T00:35:14;0.77;;;0.50;;
77332;SDS011;66408;51.326;12.070;2023-04-24T00:37:41;1.10;;;0.50;;
77332;SDS011;66408;51.326;12.070;2023-04-24T00:40:08;1.35;;;0.60;;
77332;SDS011;66408;51.326;12.070;2023-04-24T00:42:35;1.98;;;0.70;;
77332;SDS011;66408;51.326;12.070;2023-04-24T00:45:01;1.00;;;0.50;;
77332;SDS011;66408;51.326;12.070;2023-04-24T00:47:29;0.82;;;0.50;;
77332;SDS011;66408;51.326;12.070;2023-04-24T00:49:56;1.63;;;0.63;;
77332;SDS011;66408;51.326;12.070;2023-04-24T00:52:22;0.95;;;0.50;;
77332;SDS011;66408;51.326;12.070;2023-04-24T00:54:50;0.90;;;0.35;;
77332;SDS011;66408;51.326;12.070;2023-04-24T00:57:18;0.88;;;0.60;;
77332;SDS011;66408;51.326;12.070;2023-04-24T00:59:45;1.10;;;0.50;;
77332;SDS011;66408;51.326;12.070;2023-04-24T01:02:12;1.48;;;0.40;;
77332;SDS011;66408;51.326;12.070;2023-04-24T01:04:39;1.65;;;0.60;;
77332;SDS011;66408;51.326;12.070;2023-04-24T01:07:06;1.10;;;0.40;;
77332;SDS011;66408;51.326;12.070;2023-04-24T01:09:45;0.50;;;0.40;;
77332;SDS011;66408;51.326;12.070;2023-04-24T01:12:14;1.70;;;0.50;;
77332;SDS011;66408;51.326;12.070;2023-04-24T01:14:41;2.95;;;0.60;;
77332;SDS011;66408;51.326;12.070;2023-04-24T01:17:08;0.82;;;0.43;;
77332;SDS011;66408;51.326;12.070;2023-04-24T01:19:35;0.55;;;0.32;;
77332;SDS011;66408;51.326;12.070;2023-04-24T01:22:02;0.85;;;0.50;;
77332;SDS011;66408;51.326;12.070;2023-04-24T01:24:28;1.40;;;0.65;;
77332;SDS011;66408;51.326;12.070;2023-04-24T01:26:56;1.08;;;0.52;;
77332;SDS011;66408;51.326;12.070;2023-04-24T01:29:23;0.60;;;0.40;;
77332;SDS011;66408;51.326;12.070;2023-04-24T01:31:50;0.82;;;0.50;;
77332;SDS011;66408;51.326;12.070;2023-04-24T01:34:16;0.75;;;0.47;;
77332;SDS011;66408;51.326;12.070;2023-04-24T01:36:43;1.85;;;0.88;;
77332;SDS011;66408;51.326;12.070;2023-04-24T01:39:12;1.33;;;0.63;;
77332;SDS011;66408;51.326;12.070;2023-04-24T01:41:39;1.27;;;0.55;;
77332;SDS011;66408;51.326;12.070;2023-04-24T01:44:06;0.95;;;0.60;;
77332;SDS011;66408;51.326;12.070;2023-04-24T01:46:32;1.42;;;0.60;;
77332;SDS011;66408;51.326;12.070;2023-04-24T01:49:00;1.75;;;0.70;;
77332;SDS011;66408;51.326;12.070;2023-04-24T01:51:27;0.85;;;0.50;;
77332;SDS011;66408;51.326;12.070;2023-04-24T01:53:54;1.00;;;0.50;;
77332;SDS011;66408;51.326;12.070;2023-04-24T01:56:21;1.00;;;0.50;;
77332;SDS011;66408;51.326;12.070;2023-04-24T01:58:51;0.90;;;0.60;;
77332;SDS011;66408;51.326;12.070;2023-04-24T02:01:18;1.27;;;0.50;;
77332;SDS011;66408;51.326;12.070;2023-04-24T02:03:46;1.20;;;0.50;;
77332;SDS011;66408;51.326;12.070;2023-04-24T02:06:13;1.90;;;0.80;;
77332;SDS011;66408;51.326;12.070;2023-04-24T02:08:39;1.73;;;0.70;;
77332;SDS011;66408;51.326;12.070;2023-04-24T02:11:06;1.73;;;0.80;;
77332;SDS011;66408;51.326;12.070;2023-04-24T02:13:32;1.30;;;0.70;;
77332;SDS011;66408;51.326;12.070;2023-04-24T02:15:59;1.40;;;0.75;;
77332;SDS011;66408;51.326;12.070;2023-04-24T02:18:25;1.67;;;0.70;;
77332;SDS011;66408;51.326;12.070;2023-04-24T02:20:52;1.50;;;0.70;;
77332;SDS011;66408;51.326;12.070;2023-04-24T02:23:18;1.23;;;0.80;;
77332;SDS011;66408;51.326;12.070;2023-04-24T02:25:45;1.08;;;0.70;;
77332;SDS011;66408;51.326;12.070;2023-04-24T02:28:11;1.65;;;0.75;;
77332;SDS011;66408;51.326;12.070;2023-04-24T02:30:38;2.40;;;0.80;;
77332;SDS011;66408;51.326;12.070;2023-04-24T02:33:04;2.97;;;0.80;;
77332;SDS011;66408;51.326;12.070;2023-04-24T02:35:31;1.45;;;0.70;;
77332;SDS011;66408;51.326;12.070;2023-04-24T02:37:57;1.42;;;0.60;;
77332;SDS011;66408;51.326;12.070;2023-04-24T02:40:24;1.20;;;0.70;;
77332;SDS011;66408;51.326;12.070;2023-04-24T02:42:50;1.55;;;0.60;;
77332;SDS011;66408;51.326;12.070;2023-04-24T02:45:16;1.35;;;0.52;;
77332;SDS011;66408;51.326;12.070;2023-04-24T02:47:43;1.95;;;0.60;;
77332;SDS011;66408;51.326;12.070;2023-04-24T02:50:10;0.90;;;0.60;;
77332;SDS011;66408;51.326;12.070;2023-04-24T02:52:36;1.58;;;1.00;;
77332;SDS011;66408;51.326;12.070;2023-04-24T02:55:03;1.05;;;0.70;;
77332;SDS011;66408;51.326;12.070;2023-04-24T02:57:29;0.95;;;0.60;;
77332;SDS011;66408;51.326;12.070;2023-04-24T02:59:56;1.38;;;0.75;;
77332;SDS011;66408;51.326;12.070;2023-04-24T03:02:22;3.10;;;1.10;;
77332;SDS011;66408;51.326;12.070;2023-04-24T03:04:49;0.88;;;0.60;;
77332;SDS011;66408;51.326;12.070;2023-04-24T03:07:15;0.75;;;0.55;;
77332;SDS011;66408;51.326;12.070;2023-04-24T03:09:42;1.27;;;0.80;;
77332;SDS011;66408;51.326;12.070;2023-04-24T03:12:09;1.63;;;0.90;;
77332;SDS011;66408;51.326;12.070;2023-04-24T03:14:35;1.10;;;0.70;;
77332;SDS011;66408;51.326;12.070;2023-04-24T03:17:01;2.42;;;0.73;;
77332;SDS011;66408;51.326;12.070;2023-04-24T03:19:28;1.92;;;0.68;;
77332;SDS011;66408;51.326;12.070;2023-04-24T03:21:54;2.00;;;0.65;;
77332;SDS011;66408;51.326;12.070;2023-04-24T03:24:21;2.20;;;0.70;;
77332;SDS011;66408;51.326;12.070;2023-04-24T03:26:48;1.95;;;0.88;;
77332;SDS011;66408;51.326;12.070;2023-04-24T03:29:15;3.53;;;0.80;;
77332;SDS011;66408;51.326;12.070;2023-04-24T03:31:41;2.17;;;0.85;;
77332;SDS011;66408;51.326;12.070;2023-04-24T03:34:08;2.03;;;0.90;;
77332;SDS011;66408;51.326;12.070;2023-04-24T03:36:34;2.33;;;0.70;;
77332;SDS011;66408;51.326;12.070;2023-04-24T03:39:01;2.20;;;0.90;;
77332;SDS011;66408;51.326;12.070;2023-04-24T03:41:27;1.50;;;0.85;;
77332;SDS011;66408;51.326;12.070;2023-04-24T03:43:56;2.15;;;0.80;;
77332;SDS011;66408;51.326;12.070;2023-04-24T03:46:22;1.45;;;0.80;;
77332;SDS011;66408;51.326;12.070;2023-04-24T03:48:49;2.20;;;0.70;;
77332;SDS011;66408;51.326;12.070;2023-04-24T03:51:15;1.08;;;0.77;;
77332;SDS011;66408;51.326;12.070;2023-04-24T03:53:42;2.75;;;0.93;;
77332;SDS011;66408;51.326;12.070;2023-04-24T03:56:08;1.17;;;0.77;;
77332;SDS011;66408;51.326;12.070;2023-04-24T03:58:35;2.20;;;1.10;;
77332;SDS011;66408;51.326;12.070;2023-04-24T04:01:01;2.30;;;1.00;;
77332;SDS011;66408;51.326;12.070;2023-04-24T04:03:28;1.30;;;0.85;;
77332;SDS011;66408;51.326;12.070;2023-04-24T04:05:55;1.00;;;0.70;;
77332;SDS011;66408;51.326;12.070;2023-04-24T04:08:22;1.40;;;0.90;;
77332;SDS011;66408;51.326;12.070;2023-04-24T04:10:48;1.60;;;1.08;;
77332;SDS011;66408;51.326;12.070;2023-04-24T04:13:15;2.50;;;0.90;;
77332;SDS011;66408;51.326;12.070;2023-04-24T04:15:41;1.23;;;0.70;;
77332;SDS011;66408;51.326;12.070;2023-04-24T04:18:08;1.05;;;0.65;;
77332;SDS011;66408;51.326;12.070;2023-04-24T04:20:34;2.35;;;1.05;;
77332;SDS011;66408;51.326;12.070;2023-04-24T04:23:01;2.58;;;1.10;;
77332;SDS011;66408;51.326;12.070;2023-04-24T04:25:27;1.52;;;0.80;;
77332;SDS011;66408;51.326;12.070;2023-04-24T04:27:55;3.03;;;1.02;;
77332;SDS011;66408;51.326;12.070;2023-04-24T04:30:21;1.95;;;1.13;;
77332;SDS011;66408;51.326;12.070;2023-04-24T04:32:48;1.52;;;0.82;;
77332;SDS011;66408;51.326;12.070;2023-04-24T04:35:14;1.00;;;0.80;;
77332;SDS011;66408;51.326;12.070;2023-04-24T04:37:43;1.52;;;0.90;;
77332;SDS011;66408;51.326;12.070;2023-04-24T04:40:09;1.42;;;0.80;;
77332;SDS011;66408;51.326;12.070;2023-04-24T04:42:38;1.08;;;0.80;;
77332;SDS011;66408;51.326;12.070;2023-04-24T04:45:08;1.48;;;0.82;;
77332;SDS011;66408;51.326;12.070;2023-04-24T04:47:35;2.15;;;1.00;;
77332;SDS011;66408;51.326;12.070;2023-04-24T04:50:02;2.13;;;0.90;;
77332;SDS011;66408;51.326;12.070;2023-04-24T04:52:29;1.60;;;0.90;;
77332;SDS011;66408;51.326;12.070;2023-04-24T04:54:56;3.60;;;1.10;;
77332;SDS011;66408;51.326;12.070;2023-04-24T04:57:22;2.65;;;1.17;;
77332;SDS011;66408;51.326;12.070;2023-04-24T04:59:49;2.05;;;0.90;;
77332;SDS011;66408;51.326;12.070;2023-04-24T05:02:15;1.45;;;0.88;;
77332;SDS011;66408;51.326;12.070;2023-04-24T05:04:42;3.00;;;1.13;;
77332;SDS011;66408;51.326;12.070;2023-04-24T05:07:09;1.88;;;0.95;;
77332;SDS011;66408;51.326;12.070;2023-04-24T05:09:35;3.63;;;1.30;;
77332;SDS011;66408;51.326;12.070;2023-04-24T05:12:02;1.73;;;1.00;;
77332;SDS011;66408;51.326;12.070;2023-04-24T05:14:28;1.48;;;0.88;;
77332;SDS011;66408;51.326;12.070;2023-04-24T05:16:55;2.75;;;1.10;;
77332;SDS011;66408;51.326;12.070;2023-04-24T05:19:21;1.20;;;0.90;;
77332;SDS011;66408;51.326;12.070;2023-04-24T05:21:48;2.08;;;1.00;;
77332;SDS011;66408;51.326;12.070;2023-04-24T05:24:14;3.08;;;1.23;;
77332;SDS011;66408;51.326;12.070;2023-04-24T05:26:41;3.13;;;1.10;;
77332;SDS011;66408;51.326;12.070;2023-04-24T05:29:07;2.20;;;1.00;;
77332;SDS011;66408;51.326;12.070;2023-04-24T05:31:34;1.52;;;0.90;;
77332;SDS011;66408;51.326;12.070;2023-04-24T05:34:00;2.70;;;1.05;;
77332;SDS011;66408;51.326;12.070;2023-04-24T05:36:27;1.45;;;0.80;;
77332;SDS011;66408;51.326;12.070;2023-04-24T05:38:53;2.13;;;0.95;;
77332;SDS011;66408;51.326;12.070;2023-04-24T05:41:20;1.48;;;0.82;;
77332;SDS011;66408;51.326;12.070;2023-04-24T05:43:47;3.10;;;1.10;;
77332;SDS011;66408;51.326;12.070;2023-04-24T05:46:13;1.27;;;0.75;;
77332;SDS011;66408;51.326;12.070;2023-04-24T05:48:40;3.28;;;1.15;;
77332;SDS011;66408;51.326;12.070;2023-04-24T05:51:06;2.05;;;0.90;;
77332;SDS011;66408;51.326;12.070;2023-04-24T05:53:33;2.33;;;0.90;;
77332;SDS011;66408;51.326;12.070;2023-04-24T05:55:59;1.98;;;0.93;;
77332;SDS011;66408;51.326;12.070;2023-04-24T05:58:26;2.40;;;0.95;;
77332;SDS011;66408;51.326;12.070;2023-04-24T06:01:00;2.38;;;1.00;;
77332;SDS011;66408;51.326;12.070;2023-04-24T06:03:28;1.90;;;0.90;;
77332;SDS011;66408;51.326;12.070;2023-04-24T06:05:55;1.85;;;0.90;;
77332;SDS011;66408;51.326;12.070;2023-04-24T06:08:21;1.80;;;1.00;;
77332;SDS011;66408;51.326;12.070;2023-04-24T06:10:48;1.90;;;1.00;;
77332;SDS011;66408;51.326;12.070;2023-04-24T06:13:14;2.75;;;0.93;;
77332;SDS011;66408;51.326;12.070;2023-04-24T06:15:42;1.75;;;0.90;;
77332;SDS011;66408;51.326;12.070;2023-04-24T06:18:10;1.95;;;1.02;;
77332;SDS011;66408;51.326;12.070;2023-04-24T06:20:36;4.10;;;0.90;;
77332;SDS011;66408;51.326;12.070;2023-04-24T06:23:03;3.53;;;1.17;;
77332;SDS011;66408;51.326;12.070;2023-04-24T06:25:29;2.92;;;0.88;;
77332;SDS011;66408;51.326;12.070;2023-04-24T06:27:57;1.92;;;0.70;;
77332;SDS011;66408;51.326;12.070;2023-04-24T06:30:23;1.63;;;0.70;;
77332;SDS011;66408;51.326;12.070;2023-04-24T06:32:50;2.08;;;0.90;;
77332;SDS011;66408;51.326;12.070;2023-04-24T06:35:20;1.55;;;0.73;;
77332;SDS011;66408;51.326;12.070;2023-04-24T06:37:47;1.10;;;0.63;;
77332;SDS011;66408;51.326;12.070;2023-04-24T06:40:13;2.47;;;0.82;;
77332;SDS011;66408;51.326;12.070;2023-04-24T06:42:40;2.50;;;0.85;;
77332;SDS011;66408;51.326;12.070;2023-04-24T06:45:07;1.88;;;0.82;;
77332;SDS011;66408;51.326;12.070;2023-04-24T06:47:33;1.90;;;0.90;;
77332;SDS011;66408;51.326;12.070;2023-04-24T06:50:00;1.38;;;0.70;;
77332;SDS011;66408;51.326;12.070;2023-04-24T06:52:27;2.30;;;0.90;;
77332;SDS011;66408;51.326;12.070;2023-04-24T06:54:59;3.08;;;0.90;;
77332;SDS011;66408;51.326;12.070;2023-04-24T06:57:27;1.52;;;0.80;;
77332;SDS011;66408;51.326;12.070;2023-04-24T06:59:53;4.30;;;0.60;;
77332;SDS011;66408;51.326;12.070;2023-04-24T07:02:20;1.40;;;0.80;;
77332;SDS011;66408;51.326;12.070;2023-04-24T07:04:46;1.45;;;0.70;;
77332;SDS011;66408;51.326;12.070;2023-04-24T07:07:13;1.80;;;0.70;;
77332;SDS011;66408;51.326;12.070;2023-04-24T07:09:40;1.55;;;0.80;;
77332;SDS011;66408;51.326;12.070;2023-04-24T07:12:11;2.30;;;0.70;;
77332;SDS011;66408;51.326;12.070;2023-04-24T07:14:39;1.77;;;0.80;;
77332;SDS011;66408;51.326;12.070;2023-04-24T07:17:06;2.20;;;0.60;;
77332;SDS011;66408;51.326;12.070;2023-04-24T07:19:33;2.05;;;1.00;;
77332;SDS011;66408;51.326;12.070;2023-04-24T07:22:00;3.65;;;0.90;;
77332;SDS011;66408;51.326;12.070;2023-04-24T07:24:27;2.25;;;0.80;;
77332;SDS011;66408;51.326;12.070;2023-04-24T07:26:55;1.40;;;0.70;;
77332;SDS011;66408;51.326;12.070;2023-04-24T07:29:23;1.33;;;0.80;;
77332;SDS011;66408;51.326;12.070;2023-04-24T07:31:49;2.67;;;0.88;;
77332;SDS011;66408;51.326;12.070;2023-04-24T07:34:16;2.20;;;0.50;;
77332;SDS011;66408;51.326;12.070;2023-04-24T07:36:42;2.35;;;0.65;;
77332;SDS011;66408;51.326;12.070;2023-04-24T07:39:09;1.55;;;0.50;;
77332;SDS011;66408;51.326;12.070;2023-04-24T07:41:35;2.25;;;0.57;;
77332;SDS011;66408;51.326;12.070;2023-04-24T07:44:02;1.40;;;0.55;;
77332;SDS011;66408;51.326;12.070;2023-04-24T07:46:29;1.67;;;0.40;;
77332;SDS011;66408;51.326;12.070;2023-04-24T07:48:56;0.82;;;0.50;;
77332;SDS011;66408;51.326;12.070;2023-04-24T07:51:39;1.50;;;0.50;;
77332;SDS011;66408;51.326;12.070;2023-04-24T07:54:06;1.50;;;0.45;;
77332;SDS011;66408;51.326;12.070;2023-04-24T07:56:33;1.73;;;0.57;;
77332;SDS011;66408;51.326;12.070;2023-04-24T07:59:00;2.67;;;0.50;;
77332;SDS011;66408;51.326;12.070;2023-04-24T08:01:27;1.40;;;0.60;;
77332;SDS011;66408;51.326;12.070;2023-04-24T08:03:54;1.33;;;0.47;;
77332;SDS011;66408;51.326;12.070;2023-04-24T08:06:21;0.65;;;0.50;;
77332;SDS011;66408;51.326;12.070;2023-04-24T08:08:48;0.77;;;0.40;;
77332;SDS011;66408;51.326;12.070;2023-04-24T08:11:14;2.20;;;0.70;;
77332;SDS011;66408;51.326;12.070;2023-04-24T08:13:41;1.38;;;0.60;;
77332;SDS011;66408;51.326;12.070;2023-04-24T08:16:08;3.22;;;0.68;;
77332;SDS011;66408;51.326;12.070;2023-04-24T08:18:34;3.67;;;0.60;;
77332;SDS011;66408;51.326;12.070;2023-04-24T08:21:02;1.73;;;0.60;;
77332;SDS011;66408;51.326;12.070;2023-04-24T08:23:29;1.58;;;0.50;;
77332;SDS011;66408;51.326;12.070;2023-04-24T08:25:56;1.00;;;0.50;;
77332;SDS011;66408;51.326;12.070;2023-04-24T08:28:23;0.75;;;0.50;;
77332;SDS011;66408;51.326;12.070;2023-04-24T08:30:50;2.70;;;0.70;;
77332;SDS011;66408;51.326;12.070;2023-04-24T08:33:24;1.02;;;0.50;;
77332;SDS011;66408;51.326;12.070;2023-04-24T08:35:51;2.08;;;0.60;;
77332;SDS011;66408;51.326;12.070;2023-04-24T08:38:18;1.40;;;0.60;;
77332;SDS011;66408;51.326;12.070;2023-04-24T08:40:45;2.70;;;0.60;;
77332;SDS011;66408;51.326;12.070;2023-04-24T08:43:14;1.33;;;0.60;;
77332;SDS011;66408;51.326;12.070;2023-04-24T08:45:41;1.38;;;0.73;;
77332;SDS011;66408;51.326;12.070;2023-04-24T08:48:08;1.15;;;0.52;;
77332;SDS011;66408;51.326;12.070;2023-04-24T08:50:52;1.00;;;0.60;;
77332;SDS011;66408;51.326;12.070;2023-04-24T08:53:19;2.58;;;0.80;;
77332;SDS011;66408;51.326;12.070;2023-04-24T08:55:46;0.70;;;0.50;;
77332;SDS011;66408;51.326;12.070;2023-04-24T08:58:15;1.27;;;0.65;;
77332;SDS011;66408;51.326;12.070;2023-04-24T09:00:42;0.80;;;0.47;;
77332;SDS011;66408;51.326;12.070;2023-04-24T09:03:13;1.10;;;0.60;;
77332;SDS011;66408;51.326;12.070;2023-04-24T09:05:42;2.22;;;0.65;;
77332;SDS011;66408;51.326;12.070;2023-04-24T09:08:16;3.08;;;0.80;;
77332;SDS011;66408;51.326;12.070;2023-04-24T09:10:44;1.70;;;0.90;;
77332;SDS011;66408;51.326;12.070;2023-04-24T09:13:11;2.72;;;0.68;;
77332;SDS011;66408;51.326;12.070;2023-04-24T09:15:38;1.92;;;0.70;;
77332;SDS011;66408;51.326;12.070;2023-04-24T09:18:06;1.33;;;0.60;;
77332;SDS011;66408;51.326;12.070;2023-04-24T09:20:33;0.95;;;0.57;;
77332;SDS011;66408;51.326;12.070;2023-04-24T09:23:02;3.33;;;0.60;;
77332;SDS011;66408;51.326;12.070;2023-04-24T09:25:32;1.17;;;0.65;;
77332;SDS011;66408;51.326;12.070;2023-04-24T09:28:00;0.70;;;0.57;;
77332;SDS011;66408;51.326;12.070;2023-04-24T09:30:28;0.75;;;0.50;;
77332;SDS011;66408;51.326;12.070;2023-04-24T09:33:12;1.65;;;0.73;;
77332;SDS011;66408;51.326;12.070;2023-04-24T09:35:40;2.13;;;0.63;;
77332;SDS011;66408;51.326;12.070;2023-04-24T09:38:09;0.75;;;0.60;;
77332;SDS011;66408;51.326;12.070;2023-04-24T09:40:36;1.55;;;0.75;;
77332;SDS011;66408;51.326;12.070;2023-04-24T09:43:09;1.13;;;0.77;;
77332;SDS011;66408;51.326;12.070;2023-04-24T09:45:37;0.75;;;0.50;;
77332;SDS011;66408;51.326;12.070;2023-04-24T09:48:09;1.00;;;0.68;;
77332;SDS011;66408;51.326;12.070;2023-04-24T09:50:36;1.48;;;0.70;;
77332;SDS011;66408;51.326;12.070;2023-04-24T09:53:03;0.63;;;0.50;;
77332;SDS011;66408;51.326;12.070;2023-04-24T09:55:33;1.90;;;0.60;;
77332;SDS011;66408;51.326;12.070;2023-04-24T09:58:05;1.27;;;0.60;;
77332;SDS011;66408;51.326;12.070;2023-04-24T10:00:34;1.75;;;0.60;;
77332;SDS011;66408;51.326;12.070;2023-04-24T10:03:01;1.42;;;0.80;;
77332;SDS011;66408;51.326;12.070;2023-04-24T10:05:35;1.33;;;0.70;;
77332;SDS011;66408;51.326;12.070;2023-04-24T10:08:03;0.98;;;0.70;;
77332;SDS011;66408;51.326;12.070;2023-04-24T10:15:25;2.35;;;0.88;;
77332;SDS011;66408;51.326;12.070;2023-04-24T10:17:52;1.38;;;0.85;;
77332;SDS011;66408;51.326;12.070;2023-04-24T10:20:20;1.48;;;0.80;;
77332;SDS011;66408;51.326;12.070;2023-04-24T10:22:48;1.30;;;0.70;;
77332;SDS011;66408;51.326;12.070;2023-04-24T10:25:21;2.03;;;0.82;;
77332;SDS011;66408;51.326;12.070;2023-04-24T10:27:49;1.30;;;0.70;;
77332;SDS011;66408;51.326;12.070;2023-04-24T10:30:17;1.17;;;0.80;;
77332;SDS011;66408;51.326;12.070;2023-04-24T10:32:44;2.20;;;0.80;;
77332;SDS011;66408;51.326;12.070;2023-04-24T10:35:12;1.98;;;0.82;;
77332;SDS011;66408;51.326;12.070;2023-04-24T10:37:42;2.10;;;1.00;;
77332;SDS011;66408;51.326;12.070;2023-04-24T10:40:12;1.92;;;0.90;;
77332;SDS011;66408;51.326;12.070;2023-04-24T10:42:46;1.25;;;0.90;;
77332;SDS011;66408;51.326;12.070;2023-04-24T10:45:17;2.47;;;0.90;;
77332;SDS011;66408;51.326;12.070;2023-04-24T10:47:53;2.22;;;0.95;;
77332;SDS011;66408;51.326;12.070;2023-04-24T10:50:23;3.35;;;1.00;;
77332;SDS011;66408;51.326;12.070;2023-04-24T10:52:52;0.90;;;0.75;;
77332;SDS011;66408;51.326;12.070;2023-04-24T10:55:40;2.03;;;0.80;;
77332;SDS011;66408;51.326;12.070;2023-04-24T10:58:09;2.03;;;0.88;;
77332;SDS011;66408;51.326;12.070;2023-04-24T11:00:40;1.60;;;0.90;;
77332;SDS011;66408;51.326;12.070;2023-04-24T11:03:22;2.20;;;0.98;;
77332;SDS011;66408;51.326;12.070;2023-04-24T11:05:58;1.35;;;0.75;;
77332;SDS011;66408;51.326;12.070;2023-04-24T11:11:11;1.35;;;0.80;;
77332;SDS011;66408;51.326;12.070;2023-04-24T11:16:34;2.78;;;0.77;;
77332;SDS011;66408;51.326;12.070;2023-04-24T11:19:08;0.90;;;0.60;;
77332;SDS011;66408;51.326;12.070;2023-04-24T11:21:41;2.67;;;1.08;;
77332;SDS011;66408;51.326;12.070;2023-04-24T11:27:09;2.03;;;1.10;;
77332;SDS011;66408;51.326;12.070;2023-04-24T11:29:47;1.00;;;0.60;;
77332;SDS011;66408;51.326;12.070;2023-04-24T11:32:28;0.88;;;0.70;;
77332;SDS011;66408;51.326;12.070;2023-04-24T11:37:24;2.20;;;0.70;;
77332;SDS011;66408;51.326;12.070;2023-04-24T11:39:53;2.47;;;0.80;;
77332;SDS011;66408;51.326;12.070;2023-04-24T11:42:22;1.80;;;0.90;;
77332;SDS011;66408;51.326;12.070;2023-04-24T11:44:54;2.67;;;0.70;;
77332;SDS011;66408;51.326;12.070;2023-04-24T11:47:30;1.30;;;0.98;;
77332;SDS011;66408;51.326;12.070;2023-04-24T11:49:59;1.50;;;0.90;;
77332;SDS011;66408;51.326;12.070;2023-04-24T11:54:53;1.85;;;1.00;;
77332;SDS011;66408;51.326;12.070;2023-04-24T11:57:21;1.33;;;0.80;;
77332;SDS011;66408;51.326;12.070;2023-04-24T11:59:49;2.25;;;1.20;;
77332;SDS011;66408;51.326;12.070;2023-04-24T12:02:20;3.08;;;1.15;;
77332;SDS011;66408;51.326;12.070;2023-04-24T12:04:54;3.83;;;0.90;;
77332;SDS011;66408;51.326;12.070;2023-04-24T12:07:22;4.32;;;1.00;;
77332;SDS011;66408;51.326;12.070;2023-04-24T12:09:58;3.30;;;1.10;;
77332;SDS011;66408;51.326;12.070;2023-04-24T12:12:28;2.92;;;1.10;;
77332;SDS011;66408;51.326;12.070;2023-04-24T12:14:56;4.25;;;1.35;;
77332;SDS011;66408;51.326;12.070;2023-04-24T12:20:05;2.22;;;1.10;;
77332;SDS011;66408;51.326;12.070;2023-04-24T12:25:29;1.75;;;1.05;;
77332;SDS011;66408;51.326;12.070;2023-04-24T12:30:32;1.90;;;1.00;;
77332;SDS011;66408;51.326;12.070;2023-04-24T12:33:01;1.85;;;0.80;;
77332;SDS011;66408;51.326;12.070;2023-04-24T12:35:29;2.45;;;1.00;;
77332;SDS011;66408;51.326;12.070;2023-04-24T12:38:07;1.40;;;0.85;;
77332;SDS011;66408;51.326;12.070;2023-04-24T12:40:35;1.30;;;0.80;;
77332;SDS011;66408;51.326;12.070;2023-04-24T12:43:02;1.60;;;1.10;;
77332;SDS011;66408;51.326;12.070;2023-04-24T12:45:38;1.98;;;0.80;;
77332;SDS011;66408;51.326;12.070;2023-04-24T12:48:05;2.25;;;1.13;;
77332;SDS011;66408;51.326;12.070;2023-04-24T12:50:31;2.28;;;0.82;;
77332;SDS011;66408;51.326;12.070;2023-04-24T12:52:58;2.40;;;1.02;;
77332;SDS011;66408;51.326;12.070;2023-04-24T12:55:25;3.05;;;1.00;;
77332;SDS011;66408;51.326;12.070;2023-04-24T12:57:52;1.73;;;0.90;;
77332;SDS011;66408;51.326;12.070;2023-04-24T13:00:21;2.03;;;1.00;;
77332;SDS011;66408;51.326;12.070;2023-04-24T13:02:48;2.15;;;1.08;;
77332;SDS011;66408;51.326;12.070;2023-04-24T13:05:14;2.92;;;1.20;;
77332;SDS011;66408;51.326;12.070;2023-04-24T13:07:41;2.30;;;1.10;;
77332;SDS011;66408;51.326;12.070;2023-04-24T13:10:08;3.67;;;1.02;;
77332;SDS011;66408;51.326;12.070;2023-04-24T13:12:35;1.95;;;1.20;;
77332;SDS011;66408;51.326;12.070;2023-04-24T13:15:01;2.00;;;1.20;;
77332;SDS011;66408;51.326;12.070;2023-04-24T13:17:29;2.45;;;1.20;;
77332;SDS011;66408;51.326;12.070;2023-04-24T13:19:56;2.30;;;0.93;;
77332;SDS011;66408;51.326;12.070;2023-04-24T13:22:22;3.28;;;0.80;;
77332;SDS011;66408;51.326;12.070;2023-04-24T13:24:49;2.85;;;0.90;;
77332;SDS011;66408;51.326;12.070;2023-04-24T13:27:16;1.90;;;0.70;;
77332;SDS011;66408;51.326;12.070;2023-04-24T13:29:43;2.67;;;0.70;;
77332;SDS011;66408;51.326;12.070;2023-04-24T13:32:09;1.48;;;0.80;;
77332;SDS011;66408;51.326;12.070;2023-04-24T13:34:36;2.70;;;1.30;;
77332;SDS011;66408;51.326;12.070;2023-04-24T13:37:03;1.20;;;0.80;;
77332;SDS011;66408;51.326;12.070;2023-04-24T13:39:31;1.60;;;0.88;;
77332;SDS011;66408;51.326;12.070;2023-04-24T13:41:58;1.35;;;0.85;;
77332;SDS011;66408;51.326;12.070;2023-04-24T13:44:24;1.42;;;0.80;;
77332;SDS011;66408;51.326;12.070;2023-04-24T13:46:52;0.88;;;0.57;;
77332;SDS011;66408;51.326;12.070;2023-04-24T13:49:20;1.02;;;0.70;;
77332;SDS011;66408;51.326;12.070;2023-04-24T13:51:47;1.30;;;0.70;;
77332;SDS011;66408;51.326;12.070;2023-04-24T13:54:14;0.73;;;0.60;;
77332;SDS011;66408;51.326;12.070;2023-04-24T13:56:41;3.55;;;0.93;;
77332;SDS011;66408;51.326;12.070;2023-04-24T13:59:07;4.10;;;0.98;;
77332;SDS011;66408;51.326;12.070;2023-04-24T14:01:34;1.75;;;0.70;;
77332;SDS011;66408;51.326;12.070;2023-04-24T14:04:01;2.67;;;0.90;;
77332;SDS011;66408;51.326;12.070;2023-04-24T14:06:28;4.18;;;0.98;;
77332;SDS011;66408;51.326;12.070;2023-04-24T14:08:54;3.33;;;0.90;;
77332;SDS011;66408;51.326;12.070;2023-04-24T14:11:21;4.53;;;0.98;;
77332;SDS011;66408;51.326;12.070;2023-04-24T14:13:48;1.75;;;0.60;;
77332;SDS011;66408;51.326;12.070;2023-04-24T14:16:15;2.22;;;0.40;;
77332;SDS011;66408;51.326;12.070;2023-04-24T14:18:42;6.40;;;0.60;;
77332;SDS011;66408;51.326;12.070;2023-04-24T14:21:08;2.85;;;0.40;;
77332;SDS011;66408;51.326;12.070;2023-04-24T14:23:35;1.33;;;0.50;;
77332;SDS011;66408;51.326;12.070;2023-04-24T14:26:01;2.13;;;0.63;;
77332;SDS011;66408;51.326;12.070;2023-04-24T14:28:28;1.23;;;0.40;;
77332;SDS011;66408;51.326;12.070;2023-04-24T14:30:54;1.25;;;0.38;;
77332;SDS011;66408;51.326;12.070;2023-04-24T14:33:21;1.92;;;0.30;;
77332;SDS011;66408;51.326;12.070;2023-04-24T14:35:47;1.17;;;0.30;;
77332;SDS011;66408;51.326;12.070;2023-04-24T14:38:14;3.95;;;0.65;;
77332;SDS011;66408;51.326;12.070;2023-04-24T14:40:41;3.03;;;0.30;;
77332;SDS011;66408;51.326;12.070;2023-04-24T14:43:11;1.48;;;0.30;;
77332;SDS011;66408;51.326;12.070;2023-04-24T14:45:37;0.40;;;0.30;;
77332;SDS011;66408;51.326;12.070;2023-04-24T14:48:04;2.70;;;0.60;;
77332;SDS011;66408;51.326;12.070;2023-04-24T14:50:31;2.38;;;0.38;;
77332;SDS011;66408;51.326;12.070;2023-04-24T14:52:57;1.38;;;0.40;;
77332;SDS011;66408;51.326;12.070;2023-04-24T14:55:24;4.25;;;0.32;;
77332;SDS011;66408;51.326;12.070;2023-04-24T14:57:52;1.45;;;0.25;;
77332;SDS011;66408;51.326;12.070;2023-04-24T15:00:19;1.38;;;0.30;;
77332;SDS011;66408;51.326;12.070;2023-04-24T15:02:46;1.85;;;0.32;;